sensor_id;sensor_type;location;lat;lon;timestamp;temperature;humidity
74488;DHT22;63019;51.080;13.642;2023-09-12T00:00:42;18.50;96.20
74488;DHT22;63019;51.080;13.642;2023-09-12T00:01:44;18.50;96.20
74488;DHT22;63019;51.080;13.642;2023-09-12T00:02:46;18.40;96.30
74488;DHT22;63019;51.080;13.642;2023-09-12T00:03:48;18.40;96.10
74488;DHT22;63019;51.080;13.642;2023-09-12T00:04:51;18.40;96.20
74488;DHT22;63019;51.080;13.642;2023-09-12T00:05:54;18.40;96.10
74488;DHT22;63019;51.080;13.642;2023-09-12T00:06:56;18.50;96.10
74488;DHT22;63019;51.080;13.642;2023-09-12T00:07:58;18.40;96.00
74488;DHT22;63019;51.080;13.642;2023-09-12T00:09:00;18.50;96.00
74488;DHT22;63019;51.080;13.642;2023-09-12T00:10:02;18.50;96.20
74488;DHT22;63019;51.080;13.642;2023-09-12T00:11:09;18.40;96.40
74488;DHT22;63019;51.080;13.642;2023-09-12T00:12:15;18.40;96.30
74488;DHT22;63019;51.080;13.642;2023-09-12T00:13:17;18.40;96.30
74488;DHT22;63019;51.080;13.642;2023-09-12T00:14:19;18.30;96.40
74488;DHT22;63019;51.080;13.642;2023-09-12T00:15:21;18.30;96.30
74488;DHT22;63019;51.080;13.642;2023-09-12T00:16:23;18.30;96.30
74488;DHT22;63019;51.080;13.642;2023-09-12T00:17:25;18.40;96.30
74488;DHT22;63019;51.080;13.642;2023-09-12T00:18:28;18.30;96.70
74488;DHT22;63019;51.080;13.642;2023-09-12T00:19:30;18.30;96.80
74488;DHT22;63019;51.080;13.642;2023-09-12T00:20:32;18.30;96.70
74488;DHT22;63019;51.080;13.642;2023-09-12T00:21:34;18.30;96.60
74488;DHT22;63019;51.080;13.642;2023-09-12T00:22:36;18.30;96.90
74488;DHT22;63019;51.080;13.642;2023-09-12T00:23:38;18.20;96.80
74488;DHT22;63019;51.080;13.642;2023-09-12T00:24:40;18.20;96.90
74488;DHT22;63019;51.080;13.642;2023-09-12T00:25:42;18.20;96.80
74488;DHT22;63019;51.080;13.642;2023-09-12T00:26:43;18.20;96.90
74488;DHT22;63019;51.080;13.642;2023-09-12T00:27:45;18.20;97.00
74488;DHT22;63019;51.080;13.642;2023-09-12T00:28:47;18.20;97.10
74488;DHT22;63019;51.080;13.642;2023-09-12T00:29:49;18.10;97.20
74488;DHT22;63019;51.080;13.642;2023-09-12T00:30:51;18.10;97.10
74488;DHT22;63019;51.080;13.642;2023-09-12T00:31:53;18.10;97.20
74488;DHT22;63019;51.080;13.642;2023-09-12T00:32:55;18.10;97.20
74488;DHT22;63019;51.080;13.642;2023-09-12T00:33:57;18.10;97.20
74488;DHT22;63019;51.080;13.642;2023-09-12T00:34:59;18.00;97.50
74488;DHT22;63019;51.080;13.642;2023-09-12T00:36:01;18.00;97.40
74488;DHT22;63019;51.080;13.642;2023-09-12T00:37:03;18.00;97.50
74488;DHT22;63019;51.080;13.642;2023-09-12T00:38:05;18.00;97.50
74488;DHT22;63019;51.080;13.642;2023-09-12T00:39:08;18.00;97.60
74488;DHT22;63019;51.080;13.642;2023-09-12T00:40:10;18.00;97.70
74488;DHT22;63019;51.080;13.642;2023-09-12T00:41:12;18.00;97.70
74488;DHT22;63019;51.080;13.642;2023-09-12T00:42:14;18.00;97.70
74488;DHT22;63019;51.080;13.642;2023-09-12T00:43:16;18.00;97.80
74488;DHT22;63019;51.080;13.642;2023-09-12T00:44:18;17.90;97.70
74488;DHT22;63019;51.080;13.642;2023-09-12T00:45:20;18.00;97.80
74488;DHT22;63019;51.080;13.642;2023-09-12T00:46:23;17.90;97.80
74488;DHT22;63019;51.080;13.642;2023-09-12T00:47:26;17.90;97.90
74488;DHT22;63019;51.080;13.642;2023-09-12T00:48:29;17.90;97.90
74488;DHT22;63019;51.080;13.642;2023-09-12T00:49:32;17.90;98.00
74488;DHT22;63019;51.080;13.642;2023-09-12T00:50:35;17.90;98.00
74488;DHT22;63019;51.080;13.642;2023-09-12T00:51:38;17.90;98.20
74488;DHT22;63019;51.080;13.642;2023-09-12T00:52:41;17.90;98.20
74488;DHT22;63019;51.080;13.642;2023-09-12T00:53:43;17.90;98.30
74488;DHT22;63019;51.080;13.642;2023-09-12T00:54:45;17.90;98.50
74488;DHT22;63019;51.080;13.642;2023-09-12T00:55:51;17.80;98.50
74488;DHT22;63019;51.080;13.642;2023-09-12T00:56:55;17.80;98.70
74488;DHT22;63019;51.080;13.642;2023-09-12T00:57:57;17.80;98.80
74488;DHT22;63019;51.080;13.642;2023-09-12T00:59:00;17.80;98.90
74488;DHT22;63019;51.080;13.642;2023-09-12T01:00:04;17.70;99.00
74488;DHT22;63019;51.080;13.642;2023-09-12T01:01:12;17.70;98.90
74488;DHT22;63019;51.080;13.642;2023-09-12T01:02:14;17.70;99.00
74488;DHT22;63019;51.080;13.642;2023-09-12T01:03:20;17.70;98.90
74488;DHT22;63019;51.080;13.642;2023-09-12T01:04:22;17.70;99.00
74488;DHT22;63019;51.080;13.642;2023-09-12T01:05:35;17.70;99.20
74488;DHT22;63019;51.080;13.642;2023-09-12T01:06:37;17.70;99.10
74488;DHT22;63019;51.080;13.642;2023-09-12T01:07:43;17.70;99.10
74488;DHT22;63019;51.080;13.642;2023-09-12T01:08:45;17.60;99.10
74488;DHT22;63019;51.080;13.642;2023-09-12T01:09:47;17.70;99.20
74488;DHT22;63019;51.080;13.642;2023-09-12T01:10:50;17.60;99.20
74488;DHT22;63019;51.080;13.642;2023-09-12T01:11:54;17.60;99.10
74488;DHT22;63019;51.080;13.642;2023-09-12T01:12:56;17.60;99.10
74488;DHT22;63019;51.080;13.642;2023-09-12T01:13:58;17.60;99.10
74488;DHT22;63019;51.080;13.642;2023-09-12T01:15:00;17.60;99.10
74488;DHT22;63019;51.080;13.642;2023-09-12T01:16:02;17.50;99.00
74488;DHT22;63019;51.080;13.642;2023-09-12T01:17:04;17.50;99.00
74488;DHT22;63019;51.080;13.642;2023-09-12T01:18:06;17.50;99.00
74488;DHT22;63019;51.080;13.642;2023-09-12T01:19:09;17.50;98.90
74488;DHT22;63019;51.080;13.642;2023-09-12T01:20:23;17.50;99.00
74488;DHT22;63019;51.080;13.642;2023-09-12T01:23:05;17.50;99.30
74488;DHT22;63019;51.080;13.642;2023-09-12T01:24:26;17.50;99.10
74488;DHT22;63019;51.080;13.642;2023-09-12T01:28:18;17.50;99.10
74488;DHT22;63019;51.080;13.642;2023-09-12T01:29:21;17.50;99.10
74488;DHT22;63019;51.080;13.642;2023-09-12T01:30:25;17.50;99.10
74488;DHT22;63019;51.080;13.642;2023-09-12T01:31:29;17.50;99.20
74488;DHT22;63019;51.080;13.642;2023-09-12T01:32:33;17.50;99.40
74488;DHT22;63019;51.080;13.642;2023-09-12T01:33:36;17.50;99.40
74488;DHT22;63019;51.080;13.642;2023-09-12T01:34:38;17.50;99.40
74488;DHT22;63019;51.080;13.642;2023-09-12T01:35:40;17.50;99.50
74488;DHT22;63019;51.080;13.642;2023-09-12T01:36:41;17.50;99.50
74488;DHT22;63019;51.080;13.642;2023-09-12T01:37:43;17.40;99.60
74488;DHT22;63019;51.080;13.642;2023-09-12T01:38:45;17.40;99.50
74488;DHT22;63019;51.080;13.642;2023-09-12T01:39:47;17.40;99.50
74488;DHT22;63019;51.080;13.642;2023-09-12T01:40:50;17.30;99.50
74488;DHT22;63019;51.080;13.642;2023-09-12T01:41:53;17.40;99.60
74488;DHT22;63019;51.080;13.642;2023-09-12T01:42:57;17.40;99.60
74488;DHT22;63019;51.080;13.642;2023-09-12T01:44:01;17.30;99.50
74488;DHT22;63019;51.080;13.642;2023-09-12T01:45:04;17.40;99.60
74488;DHT22;63019;51.080;13.642;2023-09-12T01:46:07;17.40;99.50
74488;DHT22;63019;51.080;13.642;2023-09-12T01:47:11;17.40;99.40
74488;DHT22;63019;51.080;13.642;2023-09-12T01:48:16;17.40;99.40
74488;DHT22;63019;51.080;13.642;2023-09-12T01:49:22;17.40;99.40
74488;DHT22;63019;51.080;13.642;2023-09-12T01:50:27;17.40;99.40
74488;DHT22;63019;51.080;13.642;2023-09-12T01:51:30;17.40;99.40
74488;DHT22;63019;51.080;13.642;2023-09-12T01:52:32;17.30;99.30
74488;DHT22;63019;51.080;13.642;2023-09-12T01:53:34;17.30;99.40
74488;DHT22;63019;51.080;13.642;2023-09-12T01:54:38;17.30;99.40
74488;DHT22;63019;51.080;13.642;2023-09-12T01:55:45;17.30;99.50
74488;DHT22;63019;51.080;13.642;2023-09-12T01:56:48;17.30;99.50
74488;DHT22;63019;51.080;13.642;2023-09-12T01:57:50;17.30;99.50
74488;DHT22;63019;51.080;13.642;2023-09-12T01:58:52;17.30;99.60
74488;DHT22;63019;51.080;13.642;2023-09-12T01:59:54;17.20;99.80
74488;DHT22;63019;51.080;13.642;2023-09-12T02:00:55;17.20;99.50
74488;DHT22;63019;51.080;13.642;2023-09-12T02:01:57;17.20;99.40
74488;DHT22;63019;51.080;13.642;2023-09-12T02:02:59;17.20;99.70
74488;DHT22;63019;51.080;13.642;2023-09-12T02:04:01;17.20;99.80
74488;DHT22;63019;51.080;13.642;2023-09-12T02:05:32;17.20;99.70
74488;DHT22;63019;51.080;13.642;2023-09-12T02:06:35;17.20;99.90
74488;DHT22;63019;51.080;13.642;2023-09-12T02:07:38;17.20;99.90
74488;DHT22;63019;51.080;13.642;2023-09-12T02:08:40;17.20;99.90
74488;DHT22;63019;51.080;13.642;2023-09-12T02:09:43;17.20;99.90
74488;DHT22;63019;51.080;13.642;2023-09-12T02:10:45;17.30;99.90
74488;DHT22;63019;51.080;13.642;2023-09-12T02:11:50;17.30;99.90
74488;DHT22;63019;51.080;13.642;2023-09-12T02:12:52;17.30;99.90
74488;DHT22;63019;51.080;13.642;2023-09-12T02:13:54;17.30;99.90
74488;DHT22;63019;51.080;13.642;2023-09-12T02:14:56;17.30;99.90
74488;DHT22;63019;51.080;13.642;2023-09-12T02:16:01;17.30;99.90
74488;DHT22;63019;51.080;13.642;2023-09-12T02:17:05;17.30;99.90
74488;DHT22;63019;51.080;13.642;2023-09-12T02:18:07;17.30;99.90
74488;DHT22;63019;51.080;13.642;2023-09-12T02:19:09;17.20;99.90
74488;DHT22;63019;51.080;13.642;2023-09-12T02:20:11;17.20;99.90
74488;DHT22;63019;51.080;13.642;2023-09-12T02:21:13;17.20;99.90
74488;DHT22;63019;51.080;13.642;2023-09-12T02:22:15;17.30;99.90
74488;DHT22;63019;51.080;13.642;2023-09-12T02:23:16;17.30;99.90
74488;DHT22;63019;51.080;13.642;2023-09-12T02:24:19;17.30;99.90
74488;DHT22;63019;51.080;13.642;2023-09-12T02:25:23;17.30;99.90
74488;DHT22;63019;51.080;13.642;2023-09-12T02:26:24;17.30;99.90
74488;DHT22;63019;51.080;13.642;2023-09-12T02:27:26;17.30;99.90
74488;DHT22;63019;51.080;13.642;2023-09-12T02:28:28;17.20;99.90
74488;DHT22;63019;51.080;13.642;2023-09-12T02:29:30;17.20;99.90
74488;DHT22;63019;51.080;13.642;2023-09-12T02:30:34;17.20;99.90
74488;DHT22;63019;51.080;13.642;2023-09-12T02:31:35;17.20;99.90
74488;DHT22;63019;51.080;13.642;2023-09-12T02:32:37;17.20;99.90
74488;DHT22;63019;51.080;13.642;2023-09-12T02:33:40;17.10;99.90
74488;DHT22;63019;51.080;13.642;2023-09-12T02:34:42;17.10;99.90
74488;DHT22;63019;51.080;13.642;2023-09-12T02:35:44;17.10;99.90
74488;DHT22;63019;51.080;13.642;2023-09-12T02:36:46;17.10;99.90
74488;DHT22;63019;51.080;13.642;2023-09-12T02:37:47;17.10;99.90
74488;DHT22;63019;51.080;13.642;2023-09-12T02:38:49;17.10;99.90
74488;DHT22;63019;51.080;13.642;2023-09-12T02:39:51;17.10;99.90
74488;DHT22;63019;51.080;13.642;2023-09-12T02:40:53;17.10;99.90
74488;DHT22;63019;51.080;13.642;2023-09-12T02:41:56;17.00;99.90
74488;DHT22;63019;51.080;13.642;2023-09-12T02:42:58;17.00;99.90
74488;DHT22;63019;51.080;13.642;2023-09-12T02:44:00;17.00;99.90
74488;DHT22;63019;51.080;13.642;2023-09-12T02:45:02;17.00;99.90
74488;DHT22;63019;51.080;13.642;2023-09-12T02:46:04;17.00;99.90
74488;DHT22;63019;51.080;13.642;2023-09-12T02:47:06;16.90;99.90
74488;DHT22;63019;51.080;13.642;2023-09-12T02:48:08;16.90;99.90
74488;DHT22;63019;51.080;13.642;2023-09-12T02:49:10;16.90;99.90
74488;DHT22;63019;51.080;13.642;2023-09-12T02:50:12;16.90;99.90
74488;DHT22;63019;51.080;13.642;2023-09-12T02:51:14;16.90;99.90
74488;DHT22;63019;51.080;13.642;2023-09-12T02:52:15;16.90;99.90
74488;DHT22;63019;51.080;13.642;2023-09-12T02:53:17;16.90;99.90
74488;DHT22;63019;51.080;13.642;2023-09-12T02:54:19;16.90;99.90
74488;DHT22;63019;51.080;13.642;2023-09-12T02:55:21;16.90;99.90
74488;DHT22;63019;51.080;13.642;2023-09-12T02:56:23;16.80;99.90
74488;DHT22;63019;51.080;13.642;2023-09-12T02:57:25;16.90;99.90
74488;DHT22;63019;51.080;13.642;2023-09-12T02:58:26;16.80;99.90
74488;DHT22;63019;51.080;13.642;2023-09-12T02:59:29;16.80;99.90
74488;DHT22;63019;51.080;13.642;2023-09-12T03:00:31;16.80;99.90
74488;DHT22;63019;51.080;13.642;2023-09-12T03:01:33;16.80;99.90
74488;DHT22;63019;51.080;13.642;2023-09-12T03:02:35;16.80;99.90
74488;DHT22;63019;51.080;13.642;2023-09-12T03:03:37;16.80;99.90
74488;DHT22;63019;51.080;13.642;2023-09-12T03:04:39;16.80;99.90
74488;DHT22;63019;51.080;13.642;2023-09-12T03:05:41;16.80;99.90
74488;DHT22;63019;51.080;13.642;2023-09-12T03:06:43;16.80;99.90
74488;DHT22;63019;51.080;13.642;2023-09-12T03:07:45;16.80;99.90
74488;DHT22;63019;51.080;13.642;2023-09-12T03:08:48;16.80;99.90
74488;DHT22;63019;51.080;13.642;2023-09-12T03:09:50;16.80;99.90
74488;DHT22;63019;51.080;13.642;2023-09-12T03:10:55;16.80;99.90
74488;DHT22;63019;51.080;13.642;2023-09-12T03:11:57;16.80;99.90
74488;DHT22;63019;51.080;13.642;2023-09-12T03:12:59;16.80;99.90
74488;DHT22;63019;51.080;13.642;2023-09-12T03:14:01;16.80;99.90
74488;DHT22;63019;51.080;13.642;2023-09-12T03:15:04;16.80;99.90
74488;DHT22;63019;51.080;13.642;2023-09-12T03:16:12;16.80;99.90
74488;DHT22;63019;51.080;13.642;2023-09-12T03:17:14;16.90;99.90
74488;DHT22;63019;51.080;13.642;2023-09-12T03:18:16;16.90;99.90
74488;DHT22;63019;51.080;13.642;2023-09-12T03:19:18;16.80;99.90
74488;DHT22;63019;51.080;13.642;2023-09-12T03:20:20;16.80;99.90
74488;DHT22;63019;51.080;13.642;2023-09-12T03:21:22;16.80;99.90
74488;DHT22;63019;51.080;13.642;2023-09-12T03:22:24;16.80;99.90
74488;DHT22;63019;51.080;13.642;2023-09-12T03:23:26;16.90;99.90
74488;DHT22;63019;51.080;13.642;2023-09-12T03:24:28;16.90;99.90
74488;DHT22;63019;51.080;13.642;2023-09-12T03:25:35;16.80;99.90
74488;DHT22;63019;51.080;13.642;2023-09-12T03:26:38;16.90;99.90
74488;DHT22;63019;51.080;13.642;2023-09-12T03:27:40;16.90;99.90
74488;DHT22;63019;51.080;13.642;2023-09-12T03:28:41;16.80;99.90
74488;DHT22;63019;51.080;13.642;2023-09-12T03:29:47;16.80;99.90
74488;DHT22;63019;51.080;13.642;2023-09-12T03:30:49;16.80;99.90
74488;DHT22;63019;51.080;13.642;2023-09-12T03:31:51;16.80;99.90
74488;DHT22;63019;51.080;13.642;2023-09-12T03:32:52;16.80;99.90
74488;DHT22;63019;51.080;13.642;2023-09-12T03:33:54;16.80;99.90
74488;DHT22;63019;51.080;13.642;2023-09-12T03:34:56;16.80;99.90
74488;DHT22;63019;51.080;13.642;2023-09-12T03:35:58;16.70;99.90
74488;DHT22;63019;51.080;13.642;2023-09-12T03:37:00;16.70;99.90
74488;DHT22;63019;51.080;13.642;2023-09-12T03:38:02;16.70;99.90
74488;DHT22;63019;51.080;13.642;2023-09-12T03:39:04;16.70;99.90
74488;DHT22;63019;51.080;13.642;2023-09-12T03:40:10;16.70;99.90
74488;DHT22;63019;51.080;13.642;2023-09-12T03:41:13;16.70;99.90
74488;DHT22;63019;51.080;13.642;2023-09-12T03:42:15;16.70;99.90
74488;DHT22;63019;51.080;13.642;2023-09-12T03:43:16;16.70;99.90
74488;DHT22;63019;51.080;13.642;2023-09-12T03:44:18;16.70;99.90
74488;DHT22;63019;51.080;13.642;2023-09-12T03:45:20;16.70;99.90
74488;DHT22;63019;51.080;13.642;2023-09-12T03:46:22;16.70;99.90
74488;DHT22;63019;51.080;13.642;2023-09-12T03:47:24;16.80;99.90
74488;DHT22;63019;51.080;13.642;2023-09-12T03:48:26;16.80;99.90
74488;DHT22;63019;51.080;13.642;2023-09-12T03:49:28;16.80;99.90
74488;DHT22;63019;51.080;13.642;2023-09-12T03:50:30;16.80;99.90
74488;DHT22;63019;51.080;13.642;2023-09-12T03:51:33;16.80;99.90
74488;DHT22;63019;51.080;13.642;2023-09-12T03:52:36;16.80;99.90
74488;DHT22;63019;51.080;13.642;2023-09-12T03:53:38;16.80;99.90
74488;DHT22;63019;51.080;13.642;2023-09-12T03:54:40;16.80;99.90
74488;DHT22;63019;51.080;13.642;2023-09-12T03:55:43;16.80;99.90
74488;DHT22;63019;51.080;13.642;2023-09-12T03:56:45;16.80;99.90
74488;DHT22;63019;51.080;13.642;2023-09-12T03:57:47;16.80;99.90
74488;DHT22;63019;51.080;13.642;2023-09-12T03:58:49;16.70;99.90
74488;DHT22;63019;51.080;13.642;2023-09-12T03:59:51;16.70;99.90
74488;DHT22;63019;51.080;13.642;2023-09-12T04:00:54;16.70;99.90
74488;DHT22;63019;51.080;13.642;2023-09-12T04:01:56;16.80;99.90
74488;DHT22;63019;51.080;13.642;2023-09-12T04:02:58;16.80;99.90
74488;DHT22;63019;51.080;13.642;2023-09-12T04:04:00;16.80;99.90
74488;DHT22;63019;51.080;13.642;2023-09-12T04:05:05;16.70;99.90
74488;DHT22;63019;51.080;13.642;2023-09-12T04:06:07;16.70;99.90
74488;DHT22;63019;51.080;13.642;2023-09-12T04:07:09;16.70;99.90
74488;DHT22;63019;51.080;13.642;2023-09-12T04:08:11;16.70;99.90
74488;DHT22;63019;51.080;13.642;2023-09-12T04:09:13;16.70;99.90
74488;DHT22;63019;51.080;13.642;2023-09-12T04:10:15;16.70;99.90
74488;DHT22;63019;51.080;13.642;2023-09-12T04:11:17;16.70;99.90
74488;DHT22;63019;51.080;13.642;2023-09-12T04:12:32;16.70;99.90
74488;DHT22;63019;51.080;13.642;2023-09-12T04:13:34;16.60;99.90
74488;DHT22;63019;51.080;13.642;2023-09-12T04:14:36;16.60;99.90
74488;DHT22;63019;51.080;13.642;2023-09-12T04:15:37;16.60;99.90
74488;DHT22;63019;51.080;13.642;2023-09-12T04:16:40;16.60;99.90
74488;DHT22;63019;51.080;13.642;2023-09-12T04:17:42;16.60;99.90
74488;DHT22;63019;51.080;13.642;2023-09-12T04:18:44;16.60;99.90
74488;DHT22;63019;51.080;13.642;2023-09-12T04:19:46;16.60;99.90
74488;DHT22;63019;51.080;13.642;2023-09-12T04:20:48;16.70;99.90
74488;DHT22;63019;51.080;13.642;2023-09-12T04:21:50;16.60;99.90
74488;DHT22;63019;51.080;13.642;2023-09-12T04:22:52;16.60;99.90
74488;DHT22;63019;51.080;13.642;2023-09-12T04:23:53;16.60;99.90
74488;DHT22;63019;51.080;13.642;2023-09-12T04:24:55;16.60;99.90
74488;DHT22;63019;51.080;13.642;2023-09-12T04:25:57;16.60;99.90
74488;DHT22;63019;51.080;13.642;2023-09-12T04:27:02;16.50;99.90
74488;DHT22;63019;51.080;13.642;2023-09-12T04:28:05;16.50;99.90
74488;DHT22;63019;51.080;13.642;2023-09-12T04:29:07;16.50;99.90
74488;DHT22;63019;51.080;13.642;2023-09-12T04:30:09;16.50;99.90
74488;DHT22;63019;51.080;13.642;2023-09-12T04:31:11;16.50;99.90
74488;DHT22;63019;51.080;13.642;2023-09-12T04:32:13;16.50;99.90
74488;DHT22;63019;51.080;13.642;2023-09-12T04:33:15;16.60;99.90
74488;DHT22;63019;51.080;13.642;2023-09-12T04:34:17;16.50;99.90
74488;DHT22;63019;51.080;13.642;2023-09-12T04:35:19;16.50;99.90
74488;DHT22;63019;51.080;13.642;2023-09-12T04:36:22;16.50;99.90
74488;DHT22;63019;51.080;13.642;2023-09-12T04:37:24;16.60;99.90
74488;DHT22;63019;51.080;13.642;2023-09-12T04:38:26;16.60;99.90
74488;DHT22;63019;51.080;13.642;2023-09-12T04:39:29;16.50;99.90
74488;DHT22;63019;51.080;13.642;2023-09-12T04:40:31;16.50;99.90
74488;DHT22;63019;51.080;13.642;2023-09-12T04:41:33;16.50;99.90
74488;DHT22;63019;51.080;13.642;2023-09-12T04:42:35;16.50;99.90
74488;DHT22;63019;51.080;13.642;2023-09-12T04:43:37;16.50;99.90
74488;DHT22;63019;51.080;13.642;2023-09-12T04:44:40;16.50;99.90
74488;DHT22;63019;51.080;13.642;2023-09-12T04:45:42;16.50;99.90
74488;DHT22;63019;51.080;13.642;2023-09-12T04:46:44;16.50;99.90
74488;DHT22;63019;51.080;13.642;2023-09-12T04:47:46;16.50;99.90
74488;DHT22;63019;51.080;13.642;2023-09-12T04:48:47;16.50;99.90
74488;DHT22;63019;51.080;13.642;2023-09-12T04:49:49;16.50;99.90
74488;DHT22;63019;51.080;13.642;2023-09-12T04:50:51;16.50;99.90
74488;DHT22;63019;51.080;13.642;2023-09-12T04:51:53;16.50;99.90
74488;DHT22;63019;51.080;13.642;2023-09-12T04:52:55;16.50;99.90
74488;DHT22;63019;51.080;13.642;2023-09-12T04:53:57;16.50;99.90
74488;DHT22;63019;51.080;13.642;2023-09-12T04:54:59;16.50;99.90
74488;DHT22;63019;51.080;13.642;2023-09-12T04:56:01;16.50;99.90
74488;DHT22;63019;51.080;13.642;2023-09-12T04:57:04;16.50;99.90
74488;DHT22;63019;51.080;13.642;2023-09-12T04:58:06;16.60;99.90
74488;DHT22;63019;51.080;13.642;2023-09-12T04:59:08;16.50;99.90
74488;DHT22;63019;51.080;13.642;2023-09-12T05:00:10;16.60;99.90
74488;DHT22;63019;51.080;13.642;2023-09-12T05:01:12;16.60;99.90
74488;DHT22;63019;51.080;13.642;2023-09-12T05:02:14;16.60;99.90
74488;DHT22;63019;51.080;13.642;2023-09-12T05:03:17;16.60;99.90
74488;DHT22;63019;51.080;13.642;2023-09-12T05:04:19;16.60;99.90
74488;DHT22;63019;51.080;13.642;2023-09-12T05:05:21;16.60;99.90
74488;DHT22;63019;51.080;13.642;2023-09-12T05:06:23;16.60;99.90
74488;DHT22;63019;51.080;13.642;2023-09-12T05:07:25;16.60;99.90
74488;DHT22;63019;51.080;13.642;2023-09-12T05:08:27;16.60;99.90
74488;DHT22;63019;51.080;13.642;2023-09-12T05:09:30;16.60;99.90
74488;DHT22;63019;51.080;13.642;2023-09-12T05:10:33;16.60;99.90
74488;DHT22;63019;51.080;13.642;2023-09-12T05:11:34;16.60;99.90
74488;DHT22;63019;51.080;13.642;2023-09-12T05:12:36;16.60;99.90
74488;DHT22;63019;51.080;13.642;2023-09-12T05:13:38;16.60;99.90
74488;DHT22;63019;51.080;13.642;2023-09-12T05:14:40;16.60;99.90
74488;DHT22;63019;51.080;13.642;2023-09-12T05:15:42;16.60;99.90
74488;DHT22;63019;51.080;13.642;2023-09-12T05:16:44;16.70;99.90
74488;DHT22;63019;51.080;13.642;2023-09-12T05:17:46;16.70;99.90
74488;DHT22;63019;51.080;13.642;2023-09-12T05:18:48;16.70;99.90
74488;DHT22;63019;51.080;13.642;2023-09-12T05:19:51;16.70;99.90
74488;DHT22;63019;51.080;13.642;2023-09-12T05:20:53;16.70;99.90
74488;DHT22;63019;51.080;13.642;2023-09-12T05:21:55;16.70;99.90
74488;DHT22;63019;51.080;13.642;2023-09-12T05:22:57;16.70;99.90
74488;DHT22;63019;51.080;13.642;2023-09-12T05:23:59;16.70;99.90
74488;DHT22;63019;51.080;13.642;2023-09-12T05:25:01;16.70;99.90
74488;DHT22;63019;51.080;13.642;2023-09-12T05:26:03;16.70;99.90
74488;DHT22;63019;51.080;13.642;2023-09-12T05:27:05;16.70;99.90
74488;DHT22;63019;51.080;13.642;2023-09-12T05:28:07;16.80;99.90
74488;DHT22;63019;51.080;13.642;2023-09-12T05:29:09;16.80;99.90
74488;DHT22;63019;51.080;13.642;2023-09-12T05:30:11;16.80;99.90
74488;DHT22;63019;51.080;13.642;2023-09-12T05:31:13;16.80;99.90
74488;DHT22;63019;51.080;13.642;2023-09-12T05:32:15;16.80;99.90
74488;DHT22;63019;51.080;13.642;2023-09-12T05:33:18;16.80;99.90
74488;DHT22;63019;51.080;13.642;2023-09-12T05:34:20;16.80;99.90
74488;DHT22;63019;51.080;13.642;2023-09-12T05:35:22;16.80;99.90
74488;DHT22;63019;51.080;13.642;2023-09-12T05:36:24;16.80;99.90
74488;DHT22;63019;51.080;13.642;2023-09-12T05:37:26;16.90;99.90
74488;DHT22;63019;51.080;13.642;2023-09-12T05:38:28;16.90;99.90
74488;DHT22;63019;51.080;13.642;2023-09-12T05:39:30;16.90;99.90
74488;DHT22;63019;51.080;13.642;2023-09-12T05:40:32;16.90;99.90
74488;DHT22;63019;51.080;13.642;2023-09-12T05:41:34;16.90;99.90
74488;DHT22;63019;51.080;13.642;2023-09-12T05:42:36;17.00;99.90
74488;DHT22;63019;51.080;13.642;2023-09-12T05:43:38;17.00;99.90
74488;DHT22;63019;51.080;13.642;2023-09-12T05:44:40;17.00;99.90
74488;DHT22;63019;51.080;13.642;2023-09-12T05:45:42;17.00;99.90
74488;DHT22;63019;51.080;13.642;2023-09-12T05:46:47;17.10;99.90
74488;DHT22;63019;51.080;13.642;2023-09-12T05:47:49;17.10;99.90
74488;DHT22;63019;51.080;13.642;2023-09-12T05:48:52;17.10;99.90
74488;DHT22;63019;51.080;13.642;2023-09-12T05:49:54;17.10;99.90
74488;DHT22;63019;51.080;13.642;2023-09-12T05:50:57;17.10;99.90
74488;DHT22;63019;51.080;13.642;2023-09-12T05:51:59;17.20;99.90
74488;DHT22;63019;51.080;13.642;2023-09-12T05:53:01;17.20;99.90
74488;DHT22;63019;51.080;13.642;2023-09-12T05:54:03;17.20;99.90
74488;DHT22;63019;51.080;13.642;2023-09-12T05:55:05;17.20;99.90
74488;DHT22;63019;51.080;13.642;2023-09-12T05:56:07;17.20;99.90
74488;DHT22;63019;51.080;13.642;2023-09-12T05:57:09;17.20;99.90
74488;DHT22;63019;51.080;13.642;2023-09-12T05:58:12;17.20;99.90
74488;DHT22;63019;51.080;13.642;2023-09-12T05:59:14;17.30;99.90
74488;DHT22;63019;51.080;13.642;2023-09-12T06:00:16;17.30;99.90
74488;DHT22;63019;51.080;13.642;2023-09-12T06:01:18;17.30;99.90
74488;DHT22;63019;51.080;13.642;2023-09-12T06:02:20;17.30;99.90
74488;DHT22;63019;51.080;13.642;2023-09-12T06:03:22;17.40;99.90
74488;DHT22;63019;51.080;13.642;2023-09-12T06:04:24;17.40;99.90
74488;DHT22;63019;51.080;13.642;2023-09-12T06:05:26;17.50;99.90
74488;DHT22;63019;51.080;13.642;2023-09-12T06:06:28;17.50;99.90
74488;DHT22;63019;51.080;13.642;2023-09-12T06:07:30;17.50;99.90
74488;DHT22;63019;51.080;13.642;2023-09-12T06:08:33;17.50;99.90
74488;DHT22;63019;51.080;13.642;2023-09-12T06:09:35;17.50;99.90
74488;DHT22;63019;51.080;13.642;2023-09-12T06:10:37;17.60;99.90
74488;DHT22;63019;51.080;13.642;2023-09-12T06:11:39;17.70;99.90
74488;DHT22;63019;51.080;13.642;2023-09-12T06:12:41;17.70;99.90
74488;DHT22;63019;51.080;13.642;2023-09-12T06:13:43;17.70;99.90
74488;DHT22;63019;51.080;13.642;2023-09-12T06:14:45;17.70;99.90
74488;DHT22;63019;51.080;13.642;2023-09-12T06:15:47;17.80;99.90
74488;DHT22;63019;51.080;13.642;2023-09-12T06:16:49;17.80;99.90
74488;DHT22;63019;51.080;13.642;2023-09-12T06:17:51;17.80;99.90
74488;DHT22;63019;51.080;13.642;2023-09-12T06:18:53;17.90;99.90
74488;DHT22;63019;51.080;13.642;2023-09-12T06:19:55;17.90;99.90
74488;DHT22;63019;51.080;13.642;2023-09-12T06:21:00;18.00;99.90
74488;DHT22;63019;51.080;13.642;2023-09-12T06:22:07;18.00;99.90
74488;DHT22;63019;51.080;13.642;2023-09-12T06:23:09;18.00;99.90
74488;DHT22;63019;51.080;13.642;2023-09-12T06:24:14;18.10;99.90
74488;DHT22;63019;51.080;13.642;2023-09-12T06:25:16;18.10;99.90
74488;DHT22;63019;51.080;13.642;2023-09-12T06:26:18;18.10;99.90
74488;DHT22;63019;51.080;13.642;2023-09-12T06:27:20;18.10;99.90
74488;DHT22;63019;51.080;13.642;2023-09-12T06:28:26;18.20;99.90
74488;DHT22;63019;51.080;13.642;2023-09-12T06:29:28;18.20;99.90
74488;DHT22;63019;51.080;13.642;2023-09-12T06:30:30;18.20;99.90
74488;DHT22;63019;51.080;13.642;2023-09-12T06:31:33;18.30;99.90
74488;DHT22;63019;51.080;13.642;2023-09-12T06:32:35;18.30;99.90
74488;DHT22;63019;51.080;13.642;2023-09-12T06:33:37;18.40;99.90